Time;durP1;ratioP1;P1;durP2;ratioP2;P2;SDS_P1;SDS_P2;PMS_P1;PMS_P2;Temp;Humidity;BMP_temperature;BMP_pressure;BME280_temperature;BME280_humidity;BME280_pressure;Samples;Min_cycle;Max_cycle;Signal;HPM_P1;HPM_P2
2021/06/25 00:04:40;;;;;;;1999.90;999.90;;;;;;;14.39;100.00;98512.23;4029187;73;27503;-23
2021/06/25 00:14:59;;;;;;;1999.90;999.90;;;;;;;14.11;100.00;98487.07;4026247;73;27213;-20
2021/06/25 00:25:20;;;;;;;1999.90;999.90;;;;;;;14.00;100.00;98472.08;4021204;73;27571;-22
2021/06/25 00:35:39;;;;;;;1999.90;999.90;;;;;;;14.02;100.00;98482.75;4032537;73;27594;-21
2021/06/25 00:45:57;;;;;;;1999.90;999.90;;;;;;;14.01;100.00;98490.55;4041477;73;27232;-20
2021/06/25 00:56:16;;;;;;;1999.90;999.90;;;;;;;14.02;100.00;98488.17;4018627;72;27587;-22
2021/06/25 01:06:34;;;;;;;1999.90;999.90;;;;;;;14.08;100.00;98497.44;4017302;72;27247;-24
2021/06/25 01:16:53;;;;;;;1999.90;999.90;;;;;;;14.10;100.00;98498.94;4029220;73;27506;-23
2021/06/25 01:27:13;;;;;;;1999.90;999.90;;;;;;;14.08;100.00;98497.44;4020046;73;27240;-23
2021/06/25 01:37:33;;;;;;;1999.90;999.90;;;;;;;14.08;100.00;98487.95;4049348;73;27514;-23
2021/06/25 01:47:54;;;;;;;1999.90;999.90;;;;;;;13.95;100.00;98477.22;4018529;73;27083;-20
2021/06/25 01:58:15;;;;;;;1999.90;999.90;;;;;;;13.82;100.00;98468.33;3979350;73;27158;-23
2021/06/25 02:03:22;;;;;;;1999.90;999.90;;;;;;;13.69;100.00;98464.06;3895130;76;43091;-24
2021/06/25 02:08:28;;;;;;;1999.90;999.90;;;;;;;13.54;100.00;98459.91;3896839;76;44174;-24
2021/06/25 02:13:35;;;;;;;1999.90;999.90;;;;;;;13.46;100.00;98464.03;3896745;75;43428;-23
2021/06/25 02:18:41;;;;;;;1999.90;999.90;;;;;;;13.41;100.00;98453.22;3920428;75;44054;-24
2021/06/25 02:23:47;;;;;;;1999.90;999.90;;;;;;;13.40;100.00;98448.00;3900424;74;44048;-23
2021/06/25 02:28:54;;;;;;;1999.90;999.90;;;;;;;13.44;100.00;98449.34;3952209;75;44127;-23
2021/06/25 02:34:00;;;;;;;1999.90;999.90;;;;;;;13.38;100.00;98443.24;3953581;74;43663;-24
2021/06/25 02:39:06;;;;;;;1999.90;999.90;;;;;;;13.35;100.00;98437.69;3898725;75;43800;-23
2021/06/25 02:44:12;;;;;;;1999.90;999.90;;;;;;;13.26;100.00;98450.94;3906424;75;43395;-24
2021/06/25 02:49:20;;;;;;;1999.90;999.90;;;;;;;13.17;100.00;98447.42;3963753;75;44074;-23
2021/06/25 02:54:26;;;;;;;1999.90;999.90;;;;;;;13.06;100.00;98446.47;3967653;74;44046;-24
2021/06/25 02:59:33;;;;;;;1999.90;999.90;;;;;;;12.98;100.00;98437.05;3885266;76;44036;-22
2021/06/25 03:04:39;;;;;;;1999.90;999.90;;;;;;;12.85;100.00;98430.34;3833533;76;43753;-22
2021/06/25 03:14:59;;;;;;;1999.90;999.90;;;;;;;12.72;100.00;98424.66;4056392;73;27189;-19
2021/06/25 03:20:08;;;;;;;1999.90;999.90;;;;;;;12.70;100.00;98426.69;3832249;76;44057;-22
2021/06/25 03:25:16;;;;;;;1999.90;999.90;;;;;;;12.71;100.00;98420.27;3987788;74;43688;-22
2021/06/25 03:30:23;;;;;;;1999.90;999.90;;;;;;;12.75;100.00;98427.02;3958668;75;43698;-23
2021/06/25 03:35:32;;;;;;;1999.90;999.90;;;;;;;12.76;100.00;98433.59;3962342;75;43644;-22
2021/06/25 03:40:39;;;;;;;1999.90;999.90;;;;;;;12.72;100.00;98435.47;3971705;75;43450;-22
2021/06/25 03:45:46;;;;;;;1999.90;999.90;;;;;;;12.80;100.00;98442.19;3965190;74;43759;-22
2021/06/25 03:50:52;;;;;;;1999.90;999.90;;;;;;;12.84;100.00;98446.73;3881156;76;43477;-22
2021/06/25 03:56:11;;;;;;;1999.90;999.90;;;;;;;12.89;100.00;98445.70;3997683;73;43722;-22
2021/06/25 04:01:18;;;;;;;1999.90;999.90;;;;;;;12.97;100.00;98454.30;4026917;73;43020;-23
2021/06/25 04:06:24;;;;;;;1999.90;999.90;;;;;;;13.10;100.00;98457.28;3986791;73;43369;-22
2021/06/25 04:11:30;;;;;;;1999.90;999.90;;;;;;;13.23;100.00;98462.93;3957392;75;44177;-22
2021/06/25 04:16:37;;;;;;;1999.90;999.90;;;;;;;13.41;100.00;98469.98;3957402;75;44064;-21
2021/06/25 04:21:44;;;;;;;1999.90;999.90;;;;;;;13.47;100.00;98474.67;3957505;75;43326;-20
2021/06/25 04:26:50;;;;;;;1999.90;999.90;;;;;;;13.56;100.00;98476.33;3955816;75;44050;-21
2021/06/25 04:31:56;;;;;;;1999.90;999.90;;;;;;;13.55;100.00;98485.46;3956284;75;44127;-21
2021/06/25 04:42:15;;;;;;;1999.90;999.90;;;;;;;13.63;100.00;98481.00;4036249;72;27522;-19
2021/06/25 04:47:21;;;;;;;1999.90;999.90;;;;;;;13.65;100.00;98477.61;3914795;75;44316;-22
2021/06/25 04:52:27;;;;;;;1999.90;999.90;;;;;;;13.70;100.00;98481.47;3896626;76;43444;-22
2021/06/25 04:57:35;;;;;;;1999.90;999.90;;;;;;;13.79;100.00;98481.40;3951267;75;43674;-21
2021/06/25 05:02:41;;;;;;;1999.90;999.90;;;;;;;13.89;100.00;98482.52;3963949;75;44097;-21
2021/06/25 05:07:47;;;;;;;1999.90;999.90;;;;;;;13.94;100.00;98480.09;3963812;75;43317;-21
2021/06/25 05:12:54;;;;;;;1999.90;999.90;;;;;;;14.04;100.00;98480.72;3964052;75;44107;-21
2021/06/25 05:18:11;;;;;;;1999.90;999.90;;;;;;;14.23;100.00;98475.27;3931300;75;43474;-22
2021/06/25 05:23:21;;;;;;;1999.90;999.90;;;;;;;14.37;100.00;98473.63;3897584;75;43365;-21
2021/06/25 05:28:28;;;;;;;1999.90;999.90;;;;;;;14.42;100.00;98475.26;3923658;75;44070;-21
2021/06/25 05:33:33;;;;;;;1999.90;999.90;;;;;;;14.54;100.00;98478.88;3896475;76;44626;-21
2021/06/25 05:38:39;;;;;;;1999.90;999.90;;;;;;;14.54;100.00;98482.44;3950901;75;43656;-22
2021/06/25 05:43:45;;;;;;;1999.90;999.90;;;;;;;14.64;100.00;98474.05;3754852;79;43601;-22
2021/06/25 05:48:52;;;;;;;1999.90;999.90;;;;;;;14.58;100.00;98478.84;3747163;79;43713;-22
2021/06/25 05:53:58;;;;;;;1999.90;999.90;;;;;;;14.62;100.00;98478.27;3859843;75;43681;-22
2021/06/25 05:59:04;;;;;;;1999.90;999.90;;;;;;;14.82;100.00;98478.27;3860335;77;44118;-21
2021/06/25 06:04:10;;;;;;;1999.90;999.90;;;;;;;14.95;100.00;98481.17;3859887;75;43452;-21
2021/06/25 06:09:16;;;;;;;1999.90;999.90;;;;;;;15.09;100.00;98483.03;3860135;75;43728;-21
2021/06/25 06:14:22;;;;;;;1999.90;999.90;;;;;;;15.27;100.00;98486.38;3860061;75;43475;-22
2021/06/25 06:19:37;;;;;;;1999.90;999.90;;;;;;;15.27;100.00;98483.13;3911727;74;44028;-22
2021/06/25 06:35:25;;;;;;;1999.90;999.90;;;;;;;15.54;100.00;98488.88;3907476;75;44058;-22
2021/06/25 06:40:32;;;;;;;1999.90;999.90;;;;;;;15.66;100.00;98494.13;3880947;75;44071;-22
2021/06/25 06:45:39;;;;;;;1999.90;999.90;;;;;;;15.75;100.00;98497.58;3908656;74;43987;-22
2021/06/25 06:50:46;;;;;;;1999.90;999.90;;;;;;;15.81;100.00;98486.45;3834947;77;43335;-23
2021/06/25 06:55:52;;;;;;;1999.90;999.90;;;;;;;16.04;100.00;98480.84;3834377;77;43286;-22
2021/06/25 07:00:58;;;;;;;1999.90;999.90;;;;;;;16.12;100.00;98487.48;3991962;74;43478;-22
2021/06/25 07:06:06;;;;;;;1999.90;999.90;;;;;;;16.18;100.00;98489.94;3991046;74;43289;-22
2021/06/25 07:11:11;;;;;;;1999.90;999.90;;;;;;;16.11;100.00;98489.88;3990673;74;43717;-23
2021/06/25 07:16:18;;;;;;;1999.90;999.90;;;;;;;16.07;100.00;98503.55;3982126;74;43306;-22
2021/06/25 07:21:25;;;;;;;1999.90;999.90;;;;;;;15.96;100.00;98502.19;3922036;75;44207;-23
2021/06/25 07:26:31;;;;;;;1999.90;999.90;;;;;;;16.04;100.00;98507.19;3960627;74;43715;-22
2021/06/25 07:31:37;;;;;;;1999.90;999.90;;;;;;;16.16;100.00;98508.34;3989867;74;43337;-22
2021/06/25 07:36:43;;;;;;;1999.90;999.90;;;;;;;16.27;100.00;98502.38;3956093;74;44105;-22
2021/06/25 07:41:49;;;;;;;1999.90;999.90;;;;;;;16.30;100.00;98507.40;3922240;74;43345;-22
2021/06/25 07:46:55;;;;;;;1999.90;999.90;;;;;;;16.35;100.00;98503.27;3965720;74;43308;-22
2021/06/25 07:52:02;;;;;;;1999.90;999.90;;;;;;;16.47;100.00;98499.79;3989067;74;44099;-21
2021/06/25 07:57:09;;;;;;;1999.90;999.90;;;;;;;16.66;100.00;98503.38;3989664;74;43396;-22
2021/06/25 08:02:15;;;;;;;1999.90;999.90;;;;;;;16.88;100.00;98496.82;3990476;74;43337;-22
2021/06/25 08:07:21;;;;;;;1999.90;999.90;;;;;;;17.10;100.00;98494.06;3990283;74;43692;-22
2021/06/25 08:12:27;;;;;;;1999.90;999.90;;;;;;;17.33;100.00;98503.80;3990125;74;43301;-22
2021/06/25 08:22:32;;;;;;;1999.90;999.90;;;;;;;17.74;100.00;98496.59;3767863;72;30862;-19
2021/06/25 08:32:51;;;;;;;1999.90;999.90;;;;;;;18.09;100.00;98492.39;4048669;73;27206;-21
2021/06/25 08:37:57;;;;;;;1999.90;999.90;;;;;;;18.27;100.00;98490.41;3956107;75;44063;-21
2021/06/25 08:43:04;;;;;;;1999.90;999.90;;;;;;;18.48;100.00;98496.14;3964262;75;44138;-21
2021/06/25 08:48:12;;;;;;;1999.90;999.90;;;;;;;18.75;100.00;98495.61;3904342;75;43420;-21
2021/06/25 08:53:19;;;;;;;1999.90;999.90;;;;;;;19.06;100.00;98496.82;3896463;76;43507;-21
2021/06/25 08:58:25;;;;;;;1999.90;999.90;;;;;;;19.32;100.00;98488.23;3896872;75;43733;-22
2021/06/25 09:03:33;;;;;;;1999.90;999.90;;;;;;;19.40;100.00;98484.41;3896242;76;43384;-21
2021/06/25 09:08:41;;;;;;;1999.90;999.90;;;;;;;19.37;100.00;98472.00;3895816;75;44067;-22
2021/06/25 09:13:48;;;;;;;1999.90;999.90;;;;;;;19.44;100.00;98482.08;3823076;77;43661;-22
2021/06/25 09:18:59;;;;;;;1999.90;999.90;;;;;;;19.03;100.00;98487.69;3939354;75;44084;-21
2021/06/25 09:24:24;;;;;;;1999.90;999.90;;;;;;;19.00;100.00;98488.65;3959505;75;43806;-22
2021/06/25 09:29:34;;;;;;;1999.90;999.90;;;;;;;18.78;100.00;98484.79;3896593;75;44092;-22
2021/06/25 09:34:43;;;;;;;1999.90;999.90;;;;;;;19.05;100.00;98476.03;3902689;75;43673;-21
2021/06/25 09:40:00;;;;;;;1999.90;999.90;;;;;;;18.91;100.00;98479.30;3964184;75;44009;-22
2021/06/25 09:45:10;;;;;;;1999.90;999.90;;;;;;;18.86;100.00;98475.54;3944210;74;43452;-21
2021/06/25 09:50:20;;;;;;;1999.90;999.90;;;;;;;19.08;100.00;98472.02;3895295;76;43584;-21
2021/06/25 09:55:28;;;;;;;1999.90;999.90;;;;;;;19.26;100.00;98472.69;3895553;75;43353;-21
2021/06/25 10:06:15;;;;;;;1999.90;999.90;;;;;;;19.14;100.00;98476.63;3895260;75;44004;-22
2021/06/25 10:11:23;;;;;;;1999.90;999.90;;;;;;;19.21;100.00;98481.53;3822288;77;43378;-21
2021/06/25 10:21:42;;;;;;;1999.90;999.90;;;;;;;19.17;100.00;98478.09;4079413;73;27569;-20
2021/06/25 10:26:49;;;;;;;1999.90;999.90;;;;;;;19.56;100.00;98476.24;3985937;73;44016;-20
2021/06/25 10:31:56;;;;;;;1999.90;999.90;;;;;;;19.65;100.00;98477.66;3881764;76;43325;-20
2021/06/25 10:37:05;;;;;;;1999.90;999.90;;;;;;;19.75;100.00;98475.82;3961398;74;44144;-21
2021/06/25 10:42:13;;;;;;;1999.90;999.90;;;;;;;19.88;100.00;98472.70;3964038;75;44173;-21
2021/06/25 10:47:22;;;;;;;1999.90;999.90;;;;;;;20.00;100.00;98475.88;3960053;75;44366;-21
2021/06/25 10:52:28;;;;;;;1999.90;999.90;;;;;;;19.80;100.00;98486.09;3957992;75;44037;-21
2021/06/25 10:57:36;;;;;;;1999.90;999.90;;;;;;;19.92;100.00;98486.25;3958275;75;44056;-21
2021/06/25 11:02:43;;;;;;;1999.90;999.90;;;;;;;19.99;100.00;98485.69;3881973;76;43990;-21
2021/06/25 11:07:50;;;;;;;1999.90;999.90;;;;;;;20.15;100.00;98480.20;3957961;75;43450;-21
2021/06/25 11:13:22;;;;;;;1999.90;999.90;;;;;;;20.31;100.00;98476.89;3958247;75;43543;-22
2021/06/25 11:18:31;;;;;;;1999.90;999.90;;;;;;;20.50;100.00;98476.97;3964245;73;43029;-22
2021/06/25 11:23:44;;;;;;;1999.90;999.90;;;;;;;20.67;100.00;98470.89;3978533;74;44053;-22
2021/06/25 11:28:51;;;;;;;1999.90;999.90;;;;;;;20.90;100.00;98476.58;4010590;74;44085;-22
2021/06/25 11:34:04;;;;;;;1999.90;999.90;;;;;;;20.68;100.00;98471.20;4008341;74;43976;-22
2021/06/25 11:39:33;;;;;;;1999.90;999.90;;;;;;;20.97;100.00;98470.20;3977402;74;44152;-22
2021/06/25 11:44:42;;;;;;;1999.90;999.90;;;;;;;20.54;100.00;98472.70;3988759;73;43995;-22
2021/06/25 11:49:59;;;;;;;1999.90;999.90;;;;;;;21.03;100.00;98466.54;4047358;73;44018;-22
2021/06/25 11:54:59;;;;;;;1999.90;999.90;;;;;;;21.53;100.00;98454.00;4030308;73;43384;-22
2021/06/25 12:00:10;;;;;;;1999.90;999.90;;;;;;;20.99;100.00;98448.91;3977127;74;43690;-22
2021/06/25 12:05:19;;;;;;;1999.90;999.90;;;;;;;21.05;100.00;98458.39;3997525;73;26298;-22
2021/06/25 12:10:25;;;;;;;1999.90;999.90;;;;;;;21.17;100.00;98462.59;4047518;73;43999;-21
2021/06/25 12:15:34;;;;;;;1999.90;999.90;;;;;;;21.02;100.00;98456.64;4023635;73;43638;-22
2021/06/25 12:20:40;;;;;;;1999.90;999.90;;;;;;;21.22;100.00;98455.05;3966009;74;44076;-22
2021/06/25 12:25:50;;;;;;;1999.90;999.90;;;;;;;21.07;100.00;98452.70;3956752;74;44137;-22
2021/06/25 12:31:01;;;;;;;1999.90;999.90;;;;;;;20.72;100.00;98454.64;3881116;76;44021;-22
2021/06/25 12:36:07;;;;;;;1999.90;999.90;;;;;;;20.64;100.00;98447.55;3956689;75;43717;-21
2021/06/25 12:41:14;;;;;;;1999.90;999.90;;;;;;;20.30;100.00;98451.14;3956016;75;44189;-21
2021/06/25 12:46:22;;;;;;;1999.90;999.90;;;;;;;20.12;100.00;98456.84;3957053;75;44138;-21
2021/06/25 12:51:30;;;;;;;1999.90;999.90;;;;;;;20.15;100.00;98455.59;3956410;75;43932;-21
2021/06/25 12:56:39;;;;;;;1999.90;999.90;;;;;;;20.16;100.00;98453.16;3956398;75;44046;-21
2021/06/25 13:01:47;;;;;;;1999.90;999.90;;;;;;;20.26;100.00;98452.13;3881379;76;43500;-22
2021/06/25 13:06:54;;;;;;;1999.90;999.90;;;;;;;20.17;100.00;98453.44;3956625;74;43346;-21
2021/06/25 13:12:11;;;;;;;1999.90;999.90;;;;;;;20.14;100.00;98453.36;3881206;76;43735;-21
2021/06/25 13:17:20;;;;;;;1999.90;999.90;;;;;;;19.80;100.00;98462.31;3956546;75;44122;-21
2021/06/25 13:22:38;;;;;;;1999.90;999.90;;;;;;;19.54;100.00;98458.67;3940917;74;44012;-21
2021/06/25 13:27:44;;;;;;;1999.90;999.90;;;;;;;19.48;100.00;98450.52;3985151;74;44046;-21
2021/06/25 13:32:56;;;;;;;1999.90;999.90;;;;;;;19.11;100.00;98449.75;3999651;74;43374;-21
2021/06/25 13:38:02;;;;;;;1999.90;999.90;;;;;;;18.82;100.00;98454.63;3946500;74;44129;-22
2021/06/25 13:43:16;;;;;;;1999.90;999.90;;;;;;;18.63;100.00;98461.30;3930422;75;44074;-22
2021/06/25 13:48:24;;;;;;;1999.90;999.90;;;;;;;18.41;100.00;98457.96;3936268;75;43699;-22
2021/06/25 13:53:36;;;;;;;1999.90;999.90;;;;;;;18.06;100.00;98473.17;3937042;75;43689;-22
2021/06/25 13:58:56;;;;;;;1999.90;999.90;;;;;;;17.71;100.00;98478.25;3936762;75;44027;-22
2021/06/25 14:04:06;;;;;;;1999.90;999.90;;;;;;;17.46;100.00;98475.25;3938438;74;44083;-21
2021/06/25 14:09:20;;;;;;;1999.90;999.90;;;;;;;17.35;100.00;98473.95;3999725;74;43382;-21
2021/06/25 14:14:26;;;;;;;1999.90;999.90;;;;;;;17.36;100.00;98475.63;3997582;74;43754;-21
2021/06/25 14:19:32;;;;;;;1999.90;999.90;;;;;;;17.49;100.00;98469.37;3947997;74;44054;-21
2021/06/25 14:24:38;;;;;;;1999.90;999.90;;;;;;;17.62;100.00;98460.41;3929419;75;43306;-22
2021/06/25 14:29:45;;;;;;;1999.90;999.90;;;;;;;17.70;100.00;98472.98;3935289;75;44073;-22
2021/06/25 14:34:51;;;;;;;1999.90;999.90;;;;;;;17.66;100.00;98477.19;3948366;74;43463;-21
2021/06/25 14:39:57;;;;;;;1999.90;999.90;;;;;;;17.60;100.00;98480.21;3934093;74;44391;-21
2021/06/25 14:45:03;;;;;;;1999.90;999.90;;;;;;;17.45;100.00;98497.23;3937524;74;44074;-22
2021/06/25 14:50:12;;;;;;;1999.90;999.90;;;;;;;17.38;100.00;98498.56;3935250;74;43691;-22
2021/06/25 14:55:18;;;;;;;1999.90;999.90;;;;;;;17.36;100.00;98516.48;3944378;74;44019;-21
2021/06/25 15:00:24;;;;;;;1999.90;999.90;;;;;;;17.36;100.00;98518.34;3934472;75;43392;-22
2021/06/25 15:05:30;;;;;;;1999.90;999.90;;;;;;;17.37;100.00;98509.99;3935707;74;43689;-21
2021/06/25 15:10:38;;;;;;;1999.90;999.90;;;;;;;17.48;100.00;98511.27;3947300;74;44228;-22
2021/06/25 15:20:57;;;;;;;1999.90;999.90;;;;;;;17.84;100.00;98506.03;4026819;72;27775;-22
2021/06/25 15:26:03;;;;;;;1999.90;999.90;;;;;;;17.94;100.00;98497.97;3967438;73;43632;-21
2021/06/25 15:31:09;;;;;;;1999.90;999.90;;;;;;;18.08;100.00;98488.80;3987662;73;43446;-22
2021/06/25 15:36:15;;;;;;;1999.90;999.90;;;;;;;18.19;100.00;98481.90;3964847;73;43329;-22
2021/06/25 15:41:21;;;;;;;1999.90;999.90;;;;;;;18.16;100.00;98475.49;3961762;75;43053;-22
2021/06/25 15:46:27;;;;;;;1999.90;999.90;;;;;;;18.26;100.00;98466.91;3961513;75;43703;-22
2021/06/25 15:51:34;;;;;;;1999.90;999.90;;;;;;;18.41;100.00;98457.96;3963169;73;44034;-23
2021/06/25 16:01:54;;;;;;;1999.90;999.90;;;;;;;18.74;100.00;98461.19;4046440;73;27596;-20
2021/06/25 16:07:00;;;;;;;1999.90;999.90;;;;;;;18.80;100.00;98456.77;3922105;75;44129;-21
2021/06/25 16:12:08;;;;;;;1999.90;999.90;;;;;;;18.85;100.00;98460.21;3852186;76;44483;-21
2021/06/25 16:17:14;;;;;;;1999.90;999.90;;;;;;;18.69;100.00;98451.42;3928552;75;43918;-21
2021/06/25 16:22:20;;;;;;;1999.90;999.90;;;;;;;18.57;100.00;98451.76;3908331;75;43440;-21
2021/06/25 16:27:30;;;;;;;1999.90;999.90;;;;;;;18.66;100.00;98462.75;3928092;75;44073;-21
2021/06/25 16:32:38;;;;;;;1999.90;999.90;;;;;;;18.61;100.00;98463.94;3949511;73;43469;-22
2021/06/25 16:37:44;;;;;;;1999.90;999.90;;;;;;;18.60;100.00;98469.08;3954782;73;43361;-22
2021/06/25 16:42:51;;;;;;;1999.90;999.90;;;;;;;18.70;100.00;98466.75;3959224;75;43377;-22
2021/06/25 16:47:57;;;;;;;1999.90;999.90;;;;;;;18.68;100.00;98457.92;3939805;73;43776;-23
2021/06/25 16:58:16;;;;;;;1999.90;999.90;;;;;;;18.46;100.00;98480.00;4059527;73;27248;-23
2021/06/25 17:03:22;;;;;;;1999.90;999.90;;;;;;;18.55;100.00;98471.59;4023037;73;43707;-22
2021/06/25 17:08:28;;;;;;;1999.90;999.90;;;;;;;18.50;100.00;98474.13;3965535;73;44177;-22
2021/06/25 17:13:34;;;;;;;1999.90;999.90;;;;;;;18.64;100.00;98481.22;3955889;75;43451;-23
2021/06/25 17:18:40;;;;;;;1999.90;999.90;;;;;;;18.64;100.00;98487.53;3961162;75;43433;-23
2021/06/25 17:23:46;;;;;;;1999.90;999.90;;;;;;;18.76;100.00;98485.52;3960408;73;44102;-22
2021/06/25 17:34:05;;;;;;;1999.90;999.90;;;;;;;19.07;100.00;98485.36;4044933;72;27170;-22
2021/06/25 17:39:10;;;;;;;1999.90;999.90;;;;;;;19.33;100.00;98480.86;3962343;75;43293;-21
2021/06/25 17:44:17;;;;;;;1999.90;999.90;;;;;;;19.54;100.00;98485.18;3959577;75;43373;-21
2021/06/25 17:49:23;;;;;;;1999.90;999.90;;;;;;;19.65;100.00;98498.16;3895082;76;44060;-22
2021/06/25 17:54:29;;;;;;;1999.90;999.90;;;;;;;19.76;100.00;98506.72;3895240;75;43694;-21
2021/06/25 17:59:35;;;;;;;1999.90;999.90;;;;;;;19.91;100.00;98507.80;3821225;77;44543;-21
2021/06/25 18:04:41;;;;;;;1999.90;999.90;;;;;;;19.94;100.00;98519.13;3895057;75;42976;-21
2021/06/25 18:09:47;;;;;;;1999.90;999.90;;;;;;;19.84;100.00;98519.60;3820864;77;44817;-21
2021/06/25 18:14:55;;;;;;;1999.90;999.90;;;;;;;19.77;100.00;98520.15;3895291;75;42649;-24
2021/06/25 18:20:01;;;;;;;1999.90;999.90;;;;;;;19.68;100.00;98512.76;3790165;76;43667;-23
2021/06/25 18:25:10;;;;;;;1999.90;999.90;;;;;;;19.68;100.00;98511.39;3920663;75;43309;-24
2021/06/25 18:30:18;;;;;;;1999.90;999.90;;;;;;;19.56;100.00;98507.13;3820576;77;44016;-23
2021/06/25 18:35:24;;;;;;;1999.90;999.90;;;;;;;19.41;100.00;98503.83;3837329;76;43690;-23
2021/06/25 18:40:32;;;;;;;1999.90;999.90;;;;;;;19.25;100.00;98501.91;3958487;75;44012;-24
2021/06/25 18:45:39;;;;;;;1999.90;999.90;;;;;;;19.04;100.00;98507.66;3937548;75;43761;-24
2021/06/25 18:50:45;;;;;;;1999.90;999.90;;;;;;;18.83;100.00;98516.91;3893291;76;43436;-24
2021/06/25 18:55:51;;;;;;;1999.90;999.90;;;;;;;18.71;100.00;98527.10;3893158;75;43433;-24
2021/06/25 19:01:00;;;;;;;1999.90;999.90;;;;;;;18.54;100.00;98528.56;3820681;77;43369;-24
2021/06/25 19:06:07;;;;;;;1999.90;999.90;;;;;;;18.36;100.00;98530.05;3893026;75;44481;-24
2021/06/25 19:11:13;;;;;;;1999.90;999.90;;;;;;;18.18;100.00;98541.03;3820727;77;43698;-24
2021/06/25 19:16:19;;;;;;;1999.90;999.90;;;;;;;18.08;100.00;98546.59;3893281;75;44058;-22
2021/06/25 19:21:25;;;;;;;1999.90;999.90;;;;;;;17.91;100.00;98552.92;3820055;77;43324;-23
2021/06/25 19:31:44;;;;;;;1999.90;999.90;;;;;;;17.61;100.00;98558.17;4000009;73;27138;-22
2021/06/25 19:36:50;;;;;;;1999.90;999.90;;;;;;;17.50;100.00;98562.84;3904383;75;43698;-23
2021/06/25 19:41:59;;;;;;;1999.90;999.90;;;;;;;17.45;100.00;98572.12;3894283;76;43307;-23
2021/06/25 19:47:04;;;;;;;1999.90;999.90;;;;;;;17.36;100.00;98571.45;3913884;75;44056;-23
2021/06/25 19:52:14;;;;;;;1999.90;999.90;;;;;;;17.32;100.00;98571.55;3961543;75;43294;-23
2021/06/25 19:57:18;;;;;;;1999.90;999.90;;;;;;;17.22;100.00;98575.48;3940151;75;43430;-23
2021/06/25 20:02:27;;;;;;;1999.90;999.90;;;;;;;17.04;100.00;98572.42;3956181;75;43320;-23
2021/06/25 20:07:34;;;;;;;1999.90;999.90;;;;;;;16.93;100.00;98573.27;3961117;75;43456;-23
2021/06/25 20:12:43;;;;;;;1999.90;999.90;;;;;;;16.82;100.00;98577.08;3923991;74;42882;-23
2021/06/25 20:17:51;;;;;;;1999.90;999.90;;;;;;;16.62;100.00;98577.73;3898376;75;43082;-23
2021/06/25 20:22:58;;;;;;;1999.90;999.90;;;;;;;16.51;100.00;98587.29;3906202;75;43390;-23
2021/06/25 20:28:05;;;;;;;1999.90;999.90;;;;;;;16.42;100.00;98576.20;3962862;73;44230;-23
2021/06/25 20:33:11;;;;;;;1999.90;999.90;;;;;;;16.36;100.00;98575.64;3976610;74;44076;-23
2021/06/25 20:38:17;;;;;;;1999.90;999.90;;;;;;;16.31;100.00;98584.37;3976023;74;44347;-23
2021/06/25 20:43:23;;;;;;;1999.90;999.90;;;;;;;16.30;100.00;98575.37;3974455;74;43089;-24
2021/06/25 20:48:30;;;;;;;1999.90;999.90;;;;;;;16.26;100.00;98574.09;3974004;74;43150;-23
2021/06/25 20:53:36;;;;;;;1999.90;999.90;;;;;;;16.18;100.00;98581.85;3975384;74;44672;-23
2021/06/25 20:58:43;;;;;;;1999.90;999.90;;;;;;;16.02;100.00;98581.59;3975314;74;44076;-23
2021/06/25 21:03:50;;;;;;;1999.90;999.90;;;;;;;15.74;100.00;98578.73;3938537;74;44358;-23
2021/06/25 21:08:56;;;;;;;1999.90;999.90;;;;;;;15.77;100.00;98581.58;3971057;74;43127;-23
2021/06/25 21:14:02;;;;;;;1999.90;999.90;;;;;;;15.74;100.00;98589.60;3974059;74;43685;-23
2021/06/25 21:19:08;;;;;;;1999.90;999.90;;;;;;;15.69;100.00;98592.03;3975530;74;44163;-23
2021/06/25 21:24:16;;;;;;;1999.90;999.90;;;;;;;15.66;100.00;98593.27;3975760;74;44065;-23
2021/06/25 21:29:23;;;;;;;1999.90;999.90;;;;;;;15.68;100.00;98595.78;3975015;74;42982;-23
2021/06/25 21:34:31;;;;;;;1999.90;999.90;;;;;;;15.68;100.00;98588.98;3975349;74;43668;-23
2021/06/25 21:39:38;;;;;;;1999.90;999.90;;;;;;;15.65;100.00;98593.44;3976054;74;43404;-23
2021/06/25 21:44:44;;;;;;;1999.90;999.90;;;;;;;15.62;100.00;98594.66;3975648;74;44069;-24
2021/06/25 21:49:50;;;;;;;1999.90;999.90;;;;;;;15.55;100.00;98607.33;3975235;74;43670;-23
2021/06/25 21:54:56;;;;;;;1999.90;999.90;;;;;;;15.49;100.00;98608.06;3975476;74;43311;-23
2021/06/25 22:00:04;;;;;;;1999.90;999.90;;;;;;;15.45;100.00;98608.13;3975291;74;43674;-23
2021/06/25 22:05:12;;;;;;;1999.90;999.90;;;;;;;15.40;100.00;98616.31;3974933;74;44391;-23
2021/06/25 22:10:19;;;;;;;1999.90;999.90;;;;;;;15.33;100.00;98612.68;3975745;74;43978;-23
2021/06/25 22:15:25;;;;;;;1999.90;999.90;;;;;;;15.28;100.00;98615.10;3975374;74;44753;-23
2021/06/25 22:20:31;;;;;;;1999.90;999.90;;;;;;;15.21;100.00;98615.00;3972996;74;43760;-23
2021/06/25 22:25:38;;;;;;;1999.90;999.90;;;;;;;15.13;100.00;98610.17;3926707;74;43752;-23
2021/06/25 22:30:45;;;;;;;1999.90;999.90;;;;;;;15.10;100.00;98610.89;3889047;76;43677;-23
2021/06/25 22:41:04;;;;;;;1999.90;999.90;;;;;;;15.04;100.00;98614.34;4078424;72;27642;-22
2021/06/25 22:46:10;;;;;;;1999.90;999.90;;;;;;;14.96;100.00;98629.35;4000116;73;44416;-23
2021/06/25 22:51:17;;;;;;;1999.90;999.90;;;;;;;14.91;100.00;98625.84;3881096;76;44605;-23
2021/06/25 22:56:23;;;;;;;1999.90;999.90;;;;;;;14.84;100.00;98619.44;3957049;75;44637;-23
2021/06/25 23:01:31;;;;;;;1999.90;999.90;;;;;;;14.79;100.00;98622.71;3877499;76;44078;-23
2021/06/25 23:06:38;;;;;;;1999.90;999.90;;;;;;;14.70;100.00;98625.17;3964419;75;44054;-23
2021/06/25 23:11:44;;;;;;;1999.90;999.90;;;;;;;14.62;100.00;98619.80;3956230;75;43416;-23
2021/06/25 23:16:50;;;;;;;1999.90;999.90;;;;;;;14.57;100.00;98626.27;3956790;75;43686;-23
2021/06/25 23:21:57;;;;;;;1999.90;999.90;;;;;;;14.53;100.00;98632.58;3956270;75;44130;-22
2021/06/25 23:27:04;;;;;;;1999.90;999.90;;;;;;;14.51;100.00;98625.66;3960101;74;44341;-22
2021/06/25 23:32:10;;;;;;;1999.90;999.90;;;;;;;14.47;100.00;98615.16;3961875;75;43496;-23
2021/06/25 23:37:17;;;;;;;1999.90;999.90;;;;;;;14.35;100.00;98617.97;3961441;73;43388;-23
2021/06/25 23:42:23;;;;;;;1999.90;999.90;;;;;;;14.33;100.00;98630.36;3880275;76;43077;-22
2021/06/25 23:47:30;;;;;;;1999.90;999.90;;;;;;;14.30;100.00;98619.02;3956653;75;44582;-23
2021/06/25 23:52:36;;;;;;;1999.90;999.90;;;;;;;14.09;100.00;98623.75;3955622;75;44085;-23
2021/06/25 23:57:42;;;;;;;1999.90;999.90;;;;;;;13.96;100.00;98621.60;3879311;76;43693;-23
